sensor_id;sensor_type;location;lat;lon;timestamp;temperature;humidity
14934;DHT22;7560;51.364;12.384;2023-12-22T00:02:12;5.40;99.90
14934;DHT22;7560;51.364;12.384;2023-12-22T00:07:14;5.40;99.90
14934;DHT22;7560;51.364;12.384;2023-12-22T00:12:16;5.40;99.90
14934;DHT22;7560;51.364;12.384;2023-12-22T00:17:18;5.50;99.90
14934;DHT22;7560;51.364;12.384;2023-12-22T00:22:19;5.40;99.90
14934;DHT22;7560;51.364;12.384;2023-12-22T00:27:21;5.30;99.90
14934;DHT22;7560;51.364;12.384;2023-12-22T00:32:23;5.30;99.90
14934;DHT22;7560;51.364;12.384;2023-12-22T00:37:25;5.30;99.90
14934;DHT22;7560;51.364;12.384;2023-12-22T00:42:27;5.50;99.90
14934;DHT22;7560;51.364;12.384;2023-12-22T00:47:28;5.50;99.90
14934;DHT22;7560;51.364;12.384;2023-12-22T00:52:31;5.50;99.90
14934;DHT22;7560;51.364;12.384;2023-12-22T00:57:32;5.50;99.90
14934;DHT22;7560;51.364;12.384;2023-12-22T01:02:34;5.50;99.90
14934;DHT22;7560;51.364;12.384;2023-12-22T01:07:36;5.60;99.90
14934;DHT22;7560;51.364;12.384;2023-12-22T01:12:38;5.70;99.90
14934;DHT22;7560;51.364;12.384;2023-12-22T01:17:40;5.70;99.90
14934;DHT22;7560;51.364;12.384;2023-12-22T01:22:41;5.50;99.90
14934;DHT22;7560;51.364;12.384;2023-12-22T01:27:43;5.40;99.90
14934;DHT22;7560;51.364;12.384;2023-12-22T01:32:45;5.50;99.90
14934;DHT22;7560;51.364;12.384;2023-12-22T01:37:48;5.50;99.90
14934;DHT22;7560;51.364;12.384;2023-12-22T01:42:51;5.50;99.90
14934;DHT22;7560;51.364;12.384;2023-12-22T01:47:53;5.60;99.90
14934;DHT22;7560;51.364;12.384;2023-12-22T01:52:56;5.70;99.90
14934;DHT22;7560;51.364;12.384;2023-12-22T01:57:58;5.70;99.90
14934;DHT22;7560;51.364;12.384;2023-12-22T02:03:01;5.70;99.90
14934;DHT22;7560;51.364;12.384;2023-12-22T02:08:04;5.70;99.90
14934;DHT22;7560;51.364;12.384;2023-12-22T02:13:06;5.80;99.90
14934;DHT22;7560;51.364;12.384;2023-12-22T02:18:16;5.70;99.90
14934;DHT22;7560;51.364;12.384;2023-12-22T02:23:19;5.60;99.90
14934;DHT22;7560;51.364;12.384;2023-12-22T02:28:22;5.40;99.90
14934;DHT22;7560;51.364;12.384;2023-12-22T02:33:28;5.20;99.90
14934;DHT22;7560;51.364;12.384;2023-12-22T02:38:31;5.10;99.90
14934;DHT22;7560;51.364;12.384;2023-12-22T02:43:35;5.00;99.90
14934;DHT22;7560;51.364;12.384;2023-12-22T02:48:37;4.90;99.90
14934;DHT22;7560;51.364;12.384;2023-12-22T02:53:39;4.90;99.90
14934;DHT22;7560;51.364;12.384;2023-12-22T02:58:40;4.90;99.90
14934;DHT22;7560;51.364;12.384;2023-12-22T03:03:42;5.10;99.90
14934;DHT22;7560;51.364;12.384;2023-12-22T03:08:44;5.10;99.90
14934;DHT22;7560;51.364;12.384;2023-12-22T03:13:46;5.10;99.90
14934;DHT22;7560;51.364;12.384;2023-12-22T03:18:47;5.10;99.90
14934;DHT22;7560;51.364;12.384;2023-12-22T03:23:49;5.10;99.90
14934;DHT22;7560;51.364;12.384;2023-12-22T03:28:51;5.20;99.90
14934;DHT22;7560;51.364;12.384;2023-12-22T03:33:53;5.10;99.90
14934;DHT22;7560;51.364;12.384;2023-12-22T03:38:55;5.00;99.90
14934;DHT22;7560;51.364;12.384;2023-12-22T03:43:57;4.90;99.90
14934;DHT22;7560;51.364;12.384;2023-12-22T03:48:58;5.00;99.90
14934;DHT22;7560;51.364;12.384;2023-12-22T03:54:00;4.90;99.90
14934;DHT22;7560;51.364;12.384;2023-12-22T03:59:02;4.90;99.90
14934;DHT22;7560;51.364;12.384;2023-12-22T04:04:04;5.00;99.90
14934;DHT22;7560;51.364;12.384;2023-12-22T04:09:06;5.10;99.90
14934;DHT22;7560;51.364;12.384;2023-12-22T04:14:08;5.10;99.90
14934;DHT22;7560;51.364;12.384;2023-12-22T04:19:09;5.20;99.90
14934;DHT22;7560;51.364;12.384;2023-12-22T04:24:13;5.10;99.90
14934;DHT22;7560;51.364;12.384;2023-12-22T04:29:15;4.90;99.90
14934;DHT22;7560;51.364;12.384;2023-12-22T04:34:17;4.80;99.90
14934;DHT22;7560;51.364;12.384;2023-12-22T04:39:18;4.70;99.90
14934;DHT22;7560;51.364;12.384;2023-12-22T04:44:21;4.70;99.90
14934;DHT22;7560;51.364;12.384;2023-12-22T04:49:23;4.70;99.90
14934;DHT22;7560;51.364;12.384;2023-12-22T04:54:25;4.70;99.90
14934;DHT22;7560;51.364;12.384;2023-12-22T04:59:27;4.70;99.90
14934;DHT22;7560;51.364;12.384;2023-12-22T05:04:29;4.70;99.90
14934;DHT22;7560;51.364;12.384;2023-12-22T05:09:31;4.60;99.90
14934;DHT22;7560;51.364;12.384;2023-12-22T05:14:32;4.80;99.90
14934;DHT22;7560;51.364;12.384;2023-12-22T05:19:34;4.70;99.90
14934;DHT22;7560;51.364;12.384;2023-12-22T05:24:37;4.60;99.90
14934;DHT22;7560;51.364;12.384;2023-12-22T05:29:39;4.50;99.90
14934;DHT22;7560;51.364;12.384;2023-12-22T05:34:40;4.50;99.90
14934;DHT22;7560;51.364;12.384;2023-12-22T05:39:42;4.50;99.90
14934;DHT22;7560;51.364;12.384;2023-12-22T05:44:45;4.50;99.90
14934;DHT22;7560;51.364;12.384;2023-12-22T05:49:51;4.50;99.90
14934;DHT22;7560;51.364;12.384;2023-12-22T05:54:53;4.50;99.90
14934;DHT22;7560;51.364;12.384;2023-12-22T05:59:55;4.70;99.90
14934;DHT22;7560;51.364;12.384;2023-12-22T06:04:57;4.90;99.90
14934;DHT22;7560;51.364;12.384;2023-12-22T06:09:59;5.00;99.90
14934;DHT22;7560;51.364;12.384;2023-12-22T06:15:01;5.00;99.90
14934;DHT22;7560;51.364;12.384;2023-12-22T06:20:03;5.10;99.90
14934;DHT22;7560;51.364;12.384;2023-12-22T06:25:06;5.20;99.90
14934;DHT22;7560;51.364;12.384;2023-12-22T06:30:09;5.10;99.90
14934;DHT22;7560;51.364;12.384;2023-12-22T06:35:11;4.90;99.90
14934;DHT22;7560;51.364;12.384;2023-12-22T06:40:17;4.60;99.90
14934;DHT22;7560;51.364;12.384;2023-12-22T06:45:20;4.40;99.90
14934;DHT22;7560;51.364;12.384;2023-12-22T06:50:22;4.40;99.90
14934;DHT22;7560;51.364;12.384;2023-12-22T06:55:24;4.50;99.90
14934;DHT22;7560;51.364;12.384;2023-12-22T07:00:26;4.10;99.90
14934;DHT22;7560;51.364;12.384;2023-12-22T07:05:31;4.00;99.90
14934;DHT22;7560;51.364;12.384;2023-12-22T07:10:33;4.00;99.90
14934;DHT22;7560;51.364;12.384;2023-12-22T07:15:35;4.10;99.90
14934;DHT22;7560;51.364;12.384;2023-12-22T07:20:37;4.20;99.90
14934;DHT22;7560;51.364;12.384;2023-12-22T07:25:39;4.30;99.90
14934;DHT22;7560;51.364;12.384;2023-12-22T07:30:41;4.30;99.90
14934;DHT22;7560;51.364;12.384;2023-12-22T07:35:43;4.30;99.90
14934;DHT22;7560;51.364;12.384;2023-12-22T07:40:46;4.30;99.90
14934;DHT22;7560;51.364;12.384;2023-12-22T07:45:48;4.20;99.90
14934;DHT22;7560;51.364;12.384;2023-12-22T07:50:53;4.10;99.90
14934;DHT22;7560;51.364;12.384;2023-12-22T07:55:55;4.20;99.90
14934;DHT22;7560;51.364;12.384;2023-12-22T08:00:58;4.30;99.90
14934;DHT22;7560;51.364;12.384;2023-12-22T08:06:00;4.40;99.90
14934;DHT22;7560;51.364;12.384;2023-12-22T08:11:02;4.60;99.90
14934;DHT22;7560;51.364;12.384;2023-12-22T08:16:04;4.80;99.90
14934;DHT22;7560;51.364;12.384;2023-12-22T08:21:06;4.60;99.90
14934;DHT22;7560;51.364;12.384;2023-12-22T08:26:22;4.20;99.90
14934;DHT22;7560;51.364;12.384;2023-12-22T08:31:24;4.50;99.90
14934;DHT22;7560;51.364;12.384;2023-12-22T08:36:25;4.80;99.90
14934;DHT22;7560;51.364;12.384;2023-12-22T08:41:27;4.90;99.90
14934;DHT22;7560;51.364;12.384;2023-12-22T08:46:29;5.00;99.90
14934;DHT22;7560;51.364;12.384;2023-12-22T08:51:33;5.20;99.90
14934;DHT22;7560;51.364;12.384;2023-12-22T08:56:35;5.40;99.90
14934;DHT22;7560;51.364;12.384;2023-12-22T09:01:37;5.40;99.90
14934;DHT22;7560;51.364;12.384;2023-12-22T09:06:39;5.40;99.90
14934;DHT22;7560;51.364;12.384;2023-12-22T09:11:40;5.50;99.90
14934;DHT22;7560;51.364;12.384;2023-12-22T09:16:42;5.40;99.90
14934;DHT22;7560;51.364;12.384;2023-12-22T09:21:46;5.20;99.90
14934;DHT22;7560;51.364;12.384;2023-12-22T09:26:47;4.90;99.90
14934;DHT22;7560;51.364;12.384;2023-12-22T09:31:49;4.60;99.90
14934;DHT22;7560;51.364;12.384;2023-12-22T09:36:51;4.70;99.90
14934;DHT22;7560;51.364;12.384;2023-12-22T09:41:53;4.70;99.90
14934;DHT22;7560;51.364;12.384;2023-12-22T09:46:55;3.50;99.90
14934;DHT22;7560;51.364;12.384;2023-12-22T09:51:59;3.30;99.90
14934;DHT22;7560;51.364;12.384;2023-12-22T09:57:05;3.40;99.90
14934;DHT22;7560;51.364;12.384;2023-12-22T10:02:25;3.40;99.90
14934;DHT22;7560;51.364;12.384;2023-12-22T10:07:28;3.50;99.90
14934;DHT22;7560;51.364;12.384;2023-12-22T10:12:34;3.40;99.90
14934;DHT22;7560;51.364;12.384;2023-12-22T10:17:36;3.20;99.90
14934;DHT22;7560;51.364;12.384;2023-12-22T10:22:38;3.20;99.90
14934;DHT22;7560;51.364;12.384;2023-12-22T10:27:42;3.30;99.90
14934;DHT22;7560;51.364;12.384;2023-12-22T10:32:44;3.40;99.90
14934;DHT22;7560;51.364;12.384;2023-12-22T10:37:46;3.60;99.90
14934;DHT22;7560;51.364;12.384;2023-12-22T10:42:49;3.90;99.90
14934;DHT22;7560;51.364;12.384;2023-12-22T10:47:52;4.00;99.90
14934;DHT22;7560;51.364;12.384;2023-12-22T10:52:55;4.20;99.90
14934;DHT22;7560;51.364;12.384;2023-12-22T10:58:02;4.40;99.90
14934;DHT22;7560;51.364;12.384;2023-12-22T11:03:06;4.70;99.90
14934;DHT22;7560;51.364;12.384;2023-12-22T11:08:11;4.80;99.90
14934;DHT22;7560;51.364;12.384;2023-12-22T11:13:14;5.10;99.90
14934;DHT22;7560;51.364;12.384;2023-12-22T11:18:18;5.20;99.90
14934;DHT22;7560;51.364;12.384;2023-12-22T11:23:22;5.50;99.90
14934;DHT22;7560;51.364;12.384;2023-12-22T11:28:24;5.70;99.90
14934;DHT22;7560;51.364;12.384;2023-12-22T11:33:29;6.00;99.90
14934;DHT22;7560;51.364;12.384;2023-12-22T11:38:31;6.20;99.90
14934;DHT22;7560;51.364;12.384;2023-12-22T11:43:35;6.30;99.90
14934;DHT22;7560;51.364;12.384;2023-12-22T11:48:49;6.40;99.90
14934;DHT22;7560;51.364;12.384;2023-12-22T11:53:51;6.30;99.90
14934;DHT22;7560;51.364;12.384;2023-12-22T11:58:53;6.30;99.90
14934;DHT22;7560;51.364;12.384;2023-12-22T12:03:58;6.20;99.90
14934;DHT22;7560;51.364;12.384;2023-12-22T12:09:06;6.00;99.90
14934;DHT22;7560;51.364;12.384;2023-12-22T12:14:14;6.10;99.90
14934;DHT22;7560;51.364;12.384;2023-12-22T12:19:16;6.50;99.90
14934;DHT22;7560;51.364;12.384;2023-12-22T12:24:20;6.50;99.90
14934;DHT22;7560;51.364;12.384;2023-12-22T12:29:22;6.30;99.90
14934;DHT22;7560;51.364;12.384;2023-12-22T12:34:24;5.00;99.90
14934;DHT22;7560;51.364;12.384;2023-12-22T12:39:30;3.90;99.90
14934;DHT22;7560;51.364;12.384;2023-12-22T12:44:33;3.60;99.90
14934;DHT22;7560;51.364;12.384;2023-12-22T12:49:36;3.50;99.90
14934;DHT22;7560;51.364;12.384;2023-12-22T12:54:38;3.10;99.90
14934;DHT22;7560;51.364;12.384;2023-12-22T12:59:47;2.90;99.90
14934;DHT22;7560;51.364;12.384;2023-12-22T13:04:49;2.80;99.90
14934;DHT22;7560;51.364;12.384;2023-12-22T13:09:51;2.80;99.90
14934;DHT22;7560;51.364;12.384;2023-12-22T13:15:02;2.80;99.90
14934;DHT22;7560;51.364;12.384;2023-12-22T13:20:04;2.90;99.90
14934;DHT22;7560;51.364;12.384;2023-12-22T13:25:07;3.00;99.90
14934;DHT22;7560;51.364;12.384;2023-12-22T13:30:09;3.10;99.90
14934;DHT22;7560;51.364;12.384;2023-12-22T13:35:11;3.30;99.90
14934;DHT22;7560;51.364;12.384;2023-12-22T13:40:14;3.60;99.90
14934;DHT22;7560;51.364;12.384;2023-12-22T13:45:16;3.70;99.90
14934;DHT22;7560;51.364;12.384;2023-12-22T13:50:19;3.90;99.90
14934;DHT22;7560;51.364;12.384;2023-12-22T13:55:24;4.10;99.90
14934;DHT22;7560;51.364;12.384;2023-12-22T14:00:28;4.20;99.90
14934;DHT22;7560;51.364;12.384;2023-12-22T14:05:31;4.40;99.90
14934;DHT22;7560;51.364;12.384;2023-12-22T14:10:36;4.40;99.90
14934;DHT22;7560;51.364;12.384;2023-12-22T14:15:38;4.30;99.90
14934;DHT22;7560;51.364;12.384;2023-12-22T14:20:46;4.20;99.90
14934;DHT22;7560;51.364;12.384;2023-12-22T14:25:48;4.40;99.90
14934;DHT22;7560;51.364;12.384;2023-12-22T14:30:50;4.50;99.90
14934;DHT22;7560;51.364;12.384;2023-12-22T14:35:51;4.60;99.90
14934;DHT22;7560;51.364;12.384;2023-12-22T14:40:53;4.70;99.90
14934;DHT22;7560;51.364;12.384;2023-12-22T14:45:55;4.80;99.90
14934;DHT22;7560;51.364;12.384;2023-12-22T14:50:57;4.90;99.90
14934;DHT22;7560;51.364;12.384;2023-12-22T14:55:58;5.00;99.90
14934;DHT22;7560;51.364;12.384;2023-12-22T15:01:01;5.10;99.90
14934;DHT22;7560;51.364;12.384;2023-12-22T15:06:03;5.20;99.90
14934;DHT22;7560;51.364;12.384;2023-12-22T15:11:05;5.20;99.90
14934;DHT22;7560;51.364;12.384;2023-12-22T15:16:09;5.30;99.90
14934;DHT22;7560;51.364;12.384;2023-12-22T15:21:19;5.20;99.90
14934;DHT22;7560;51.364;12.384;2023-12-22T15:26:23;5.20;99.90
14934;DHT22;7560;51.364;12.384;2023-12-22T15:31:25;5.20;99.90
14934;DHT22;7560;51.364;12.384;2023-12-22T15:36:27;5.20;99.90
14934;DHT22;7560;51.364;12.384;2023-12-22T15:41:30;5.20;99.90
14934;DHT22;7560;51.364;12.384;2023-12-22T15:46:32;5.30;99.90
14934;DHT22;7560;51.364;12.384;2023-12-22T15:51:34;5.40;99.90
14934;DHT22;7560;51.364;12.384;2023-12-22T15:56:36;5.50;99.90
14934;DHT22;7560;51.364;12.384;2023-12-22T16:01:44;5.50;99.90
14934;DHT22;7560;51.364;12.384;2023-12-22T16:06:46;5.70;99.90
14934;DHT22;7560;51.364;12.384;2023-12-22T16:11:48;5.60;99.90
14934;DHT22;7560;51.364;12.384;2023-12-22T16:16:57;5.60;99.90
14934;DHT22;7560;51.364;12.384;2023-12-22T16:21:59;5.70;99.90
14934;DHT22;7560;51.364;12.384;2023-12-22T16:27:00;5.60;99.90
14934;DHT22;7560;51.364;12.384;2023-12-22T16:32:02;5.70;99.90
14934;DHT22;7560;51.364;12.384;2023-12-22T16:37:04;5.60;99.90
14934;DHT22;7560;51.364;12.384;2023-12-22T16:42:06;5.60;99.90
14934;DHT22;7560;51.364;12.384;2023-12-22T16:47:10;5.60;99.90
14934;DHT22;7560;51.364;12.384;2023-12-22T16:52:12;5.50;99.90
14934;DHT22;7560;51.364;12.384;2023-12-22T16:57:14;5.40;99.90
14934;DHT22;7560;51.364;12.384;2023-12-22T17:02:16;5.20;99.90
14934;DHT22;7560;51.364;12.384;2023-12-22T17:07:33;4.40;99.90
14934;DHT22;7560;51.364;12.384;2023-12-22T17:12:39;3.90;99.90
14934;DHT22;7560;51.364;12.384;2023-12-22T17:17:41;3.60;99.90
14934;DHT22;7560;51.364;12.384;2023-12-22T17:22:44;3.60;99.90
14934;DHT22;7560;51.364;12.384;2023-12-22T17:27:46;3.40;99.90
14934;DHT22;7560;51.364;12.384;2023-12-22T17:32:48;2.90;99.90
14934;DHT22;7560;51.364;12.384;2023-12-22T17:37:50;2.80;99.90
14934;DHT22;7560;51.364;12.384;2023-12-22T17:42:52;2.80;99.90
14934;DHT22;7560;51.364;12.384;2023-12-22T17:47:54;2.50;99.90
14934;DHT22;7560;51.364;12.384;2023-12-22T17:52:56;2.50;99.90
14934;DHT22;7560;51.364;12.384;2023-12-22T17:57:58;2.30;99.90
14934;DHT22;7560;51.364;12.384;2023-12-22T18:03:00;2.20;99.90
14934;DHT22;7560;51.364;12.384;2023-12-22T18:08:02;2.30;99.90
14934;DHT22;7560;51.364;12.384;2023-12-22T18:13:03;2.30;99.90
14934;DHT22;7560;51.364;12.384;2023-12-22T18:18:05;2.30;99.90
14934;DHT22;7560;51.364;12.384;2023-12-22T18:23:08;2.30;99.90
14934;DHT22;7560;51.364;12.384;2023-12-22T18:28:11;2.30;99.90
14934;DHT22;7560;51.364;12.384;2023-12-22T18:33:12;2.20;99.90
14934;DHT22;7560;51.364;12.384;2023-12-22T18:38:14;2.40;99.90
14934;DHT22;7560;51.364;12.384;2023-12-22T18:43:17;2.30;99.90
14934;DHT22;7560;51.364;12.384;2023-12-22T18:48:19;2.40;99.90
14934;DHT22;7560;51.364;12.384;2023-12-22T18:53:20;2.20;99.90
14934;DHT22;7560;51.364;12.384;2023-12-22T18:58:24;2.50;99.90
14934;DHT22;7560;51.364;12.384;2023-12-22T19:03:30;2.40;99.90
14934;DHT22;7560;51.364;12.384;2023-12-22T19:08:32;2.50;99.90
14934;DHT22;7560;51.364;12.384;2023-12-22T19:13:34;2.50;99.90
14934;DHT22;7560;51.364;12.384;2023-12-22T19:18:37;2.60;99.90
14934;DHT22;7560;51.364;12.384;2023-12-22T19:23:39;2.70;99.90
14934;DHT22;7560;51.364;12.384;2023-12-22T19:28:42;2.60;99.90
14934;DHT22;7560;51.364;12.384;2023-12-22T19:33:44;2.80;99.90
14934;DHT22;7560;51.364;12.384;2023-12-22T19:38:46;2.70;99.90
14934;DHT22;7560;51.364;12.384;2023-12-22T19:43:48;2.60;99.90
14934;DHT22;7560;51.364;12.384;2023-12-22T19:48:50;2.70;99.90
14934;DHT22;7560;51.364;12.384;2023-12-22T19:53:51;2.60;99.90
14934;DHT22;7560;51.364;12.384;2023-12-22T19:58:53;2.70;99.90
14934;DHT22;7560;51.364;12.384;2023-12-22T20:03:55;2.80;99.90
14934;DHT22;7560;51.364;12.384;2023-12-22T20:08:57;2.80;99.90
14934;DHT22;7560;51.364;12.384;2023-12-22T20:14:00;2.70;99.90
14934;DHT22;7560;51.364;12.384;2023-12-22T20:19:02;2.80;99.90
14934;DHT22;7560;51.364;12.384;2023-12-22T20:24:05;2.80;99.90
14934;DHT22;7560;51.364;12.384;2023-12-22T20:29:07;2.90;99.90
14934;DHT22;7560;51.364;12.384;2023-12-22T20:34:10;2.90;99.90
14934;DHT22;7560;51.364;12.384;2023-12-22T20:39:12;2.90;99.90
14934;DHT22;7560;51.364;12.384;2023-12-22T20:44:14;3.00;99.90
14934;DHT22;7560;51.364;12.384;2023-12-22T20:49:16;3.10;99.90
14934;DHT22;7560;51.364;12.384;2023-12-22T20:54:18;3.20;99.90
14934;DHT22;7560;51.364;12.384;2023-12-22T20:59:20;3.30;99.90
14934;DHT22;7560;51.364;12.384;2023-12-22T21:04:22;3.30;99.90
14934;DHT22;7560;51.364;12.384;2023-12-22T21:09:24;3.40;99.90
14934;DHT22;7560;51.364;12.384;2023-12-22T21:14:26;3.50;99.90
14934;DHT22;7560;51.364;12.384;2023-12-22T21:19:29;3.50;99.90
14934;DHT22;7560;51.364;12.384;2023-12-22T21:24:31;3.60;99.90
14934;DHT22;7560;51.364;12.384;2023-12-22T21:29:39;3.60;99.90
14934;DHT22;7560;51.364;12.384;2023-12-22T21:34:41;3.70;99.90
14934;DHT22;7560;51.364;12.384;2023-12-22T21:39:43;3.70;99.90
14934;DHT22;7560;51.364;12.384;2023-12-22T21:44:44;3.60;99.90
14934;DHT22;7560;51.364;12.384;2023-12-22T21:49:46;3.40;99.90
14934;DHT22;7560;51.364;12.384;2023-12-22T21:54:48;3.40;99.90
14934;DHT22;7560;51.364;12.384;2023-12-22T21:59:50;3.40;99.90
14934;DHT22;7560;51.364;12.384;2023-12-22T22:04:52;3.50;99.90
14934;DHT22;7560;51.364;12.384;2023-12-22T22:09:55;3.50;99.90
14934;DHT22;7560;51.364;12.384;2023-12-22T22:14:57;3.50;99.90
14934;DHT22;7560;51.364;12.384;2023-12-22T22:19:58;3.50;99.90
14934;DHT22;7560;51.364;12.384;2023-12-22T22:25:01;3.40;99.90
14934;DHT22;7560;51.364;12.384;2023-12-22T22:30:02;3.40;99.90
14934;DHT22;7560;51.364;12.384;2023-12-22T22:35:04;3.40;99.90
14934;DHT22;7560;51.364;12.384;2023-12-22T22:40:07;3.40;99.90
14934;DHT22;7560;51.364;12.384;2023-12-22T22:45:11;3.50;99.90
14934;DHT22;7560;51.364;12.384;2023-12-22T22:50:13;3.60;99.90
14934;DHT22;7560;51.364;12.384;2023-12-22T22:55:15;3.70;99.90
14934;DHT22;7560;51.364;12.384;2023-12-22T23:00:17;3.80;99.90
14934;DHT22;7560;51.364;12.384;2023-12-22T23:05:29;4.00;99.90
14934;DHT22;7560;51.364;12.384;2023-12-22T23:10:31;4.20;99.90
14934;DHT22;7560;51.364;12.384;2023-12-22T23:15:33;4.40;99.90
14934;DHT22;7560;51.364;12.384;2023-12-22T23:20:35;4.70;99.90
14934;DHT22;7560;51.364;12.384;2023-12-22T23:25:37;4.60;99.90
14934;DHT22;7560;51.364;12.384;2023-12-22T23:30:39;4.10;99.90
14934;DHT22;7560;51.364;12.384;2023-12-22T23:35:42;4.20;99.90
14934;DHT22;7560;51.364;12.384;2023-12-22T23:40:44;4.40;99.90
14934;DHT22;7560;51.364;12.384;2023-12-22T23:45:46;4.60;99.90
14934;DHT22;7560;51.364;12.384;2023-12-22T23:50:48;4.80;99.90
14934;DHT22;7560;51.364;12.384;2023-12-22T23:55:49;4.90;99.90
